Time;durP1;ratioP1;P1;durP2;ratioP2;P2;SDS_P1;SDS_P2;PMS_P1;PMS_P2;Temp;Humidity;BMP_temperature;BMP_pressure;BME280_temperature;BME280_humidity;BME280_pressure;Samples;Min_cycle;Max_cycle;Signal;HPM_P1;HPM_P2
2022/01/15 00:00:08;;;;;;;25.12;14.38;;;-1.30;99.90;;;;;;1792075;80;21161;-73
2022/01/15 00:02:35;;;;;;;21.80;14.15;;;-1.30;99.90;;;;;;1785856;78;21202;-73
2022/01/15 00:05:02;;;;;;;30.62;15.45;;;-1.30;99.90;;;;;;1795775;80;21236;-74
2022/01/15 00:07:30;;;;;;;23.45;14.60;;;-1.30;99.90;;;;;;1787143;78;21074;-74
2022/01/15 00:09:57;;;;;;;23.83;14.53;;;-1.20;99.90;;;;;;1798511;78;21193;-73
2022/01/15 00:12:24;;;;;;;21.93;13.93;;;-1.30;99.90;;;;;;1792327;78;21097;-73
2022/01/15 00:14:53;;;;;;;20.70;14.03;;;-1.30;99.90;;;;;;1799917;80;21628;-73
2022/01/15 00:17:33;;;;;;;26.77;14.98;;;-1.30;99.90;;;;;;1786273;80;21129;-73
2022/01/15 00:19:50;;;;;;;27.80;14.00;;;-1.30;99.90;;;;;;1786306;78;21205;-74
2022/01/15 00:22:19;;;;;;;21.87;14.03;;;-1.30;99.90;;;;;;1797707;80;21094;-74
2022/01/15 00:24:46;;;;;;;30.75;14.38;;;-1.40;99.90;;;;;;1789126;80;21125;-74
2022/01/15 00:27:14;;;;;;;31.33;15.15;;;-1.30;99.90;;;;;;1796989;78;21168;-74
2022/01/15 00:29:41;;;;;;;21.85;14.90;;;-1.40;99.90;;;;;;1796396;78;21111;-73
2022/01/15 00:32:08;;;;;;;24.15;14.05;;;-1.40;99.90;;;;;;1792892;78;21536;-74
2022/01/15 00:34:36;;;;;;;26.23;14.68;;;-1.40;99.90;;;;;;1786352;80;21074;-73
2022/01/15 00:37:03;;;;;;;25.05;14.25;;;-1.40;99.90;;;;;;1791586;80;21086;-73
2022/01/15 00:39:30;;;;;;;18.27;13.35;;;-1.40;99.90;;;;;;1794536;80;21075;-73
2022/01/15 00:41:58;;;;;;;25.68;15.10;;;-1.40;99.90;;;;;;1799900;79;21524;-74
2022/01/15 00:44:25;;;;;;;19.60;12.90;;;-1.40;99.90;;;;;;1788972;78;21074;-74
2022/01/15 00:46:52;;;;;;;20.70;13.53;;;-1.40;99.90;;;;;;1790720;80;21150;-74
2022/01/15 00:49:20;;;;;;;22.35;13.28;;;-1.40;99.90;;;;;;1788181;80;21075;-73
2022/01/15 00:51:47;;;;;;;26.17;13.95;;;-1.40;99.90;;;;;;1786312;80;21071;-74
2022/01/15 00:54:14;;;;;;;25.02;13.30;;;-1.50;99.90;;;;;;1795747;78;21130;-72
2022/01/15 00:56:41;;;;;;;19.73;12.95;;;-1.50;99.90;;;;;;1790806;78;21102;-74
2022/01/15 00:59:09;;;;;;;21.40;14.28;;;-1.50;99.90;;;;;;1791373;78;21189;-73
2022/01/15 01:01:36;;;;;;;19.57;12.55;;;-1.50;99.90;;;;;;1786129;80;21075;-74
2022/01/15 01:04:03;;;;;;;22.40;13.10;;;-1.50;99.90;;;;;;1785874;80;21106;-72
2022/01/15 01:06:31;;;;;;;32.40;13.62;;;-1.60;99.90;;;;;;1792471;78;21180;-72
2022/01/15 01:08:58;;;;;;;21.35;13.25;;;-1.60;99.90;;;;;;1802181;79;21109;-73
2022/01/15 01:11:41;;;;;;;23.27;13.88;;;-1.50;99.90;;;;;;1799239;78;21067;-72
2022/01/15 01:22:53;;;;;;;19.62;12.28;;;-1.70;99.90;;;;;;1787508;80;21681;-73
2022/01/15 01:24:52;;;;;;;18.57;13.10;;;-1.60;99.90;;;;;;1797282;78;21549;-73
2022/01/15 01:27:26;;;;;;;20.85;12.85;;;-1.60;99.90;;;;;;1785890;80;21098;-73
2022/01/15 01:30:04;;;;;;;19.02;12.37;;;-1.60;99.90;;;;;;1784814;80;21148;-73
2022/01/15 01:35:06;;;;;;;23.92;13.43;;;-1.70;99.90;;;;;;1772874;80;21176;-73
2022/01/15 01:37:37;;;;;;;20.35;13.65;;;-1.70;99.90;;;;;;1786894;78;21180;-74
2022/01/15 01:40:14;;;;;;;19.82;12.53;;;-1.70;99.90;;;;;;1793728;79;21117;-73
2022/01/15 01:42:37;;;;;;;18.70;12.47;;;-1.70;99.90;;;;;;1791287;78;21505;-73
2022/01/15 01:45:05;;;;;;;23.62;13.95;;;-1.80;99.90;;;;;;1796371;77;21108;-73
2022/01/15 01:47:50;;;;;;;19.42;13.22;;;-1.70;99.90;;;;;;1787485;79;21102;-73
2022/01/15 01:50:04;;;;;;;31.75;13.35;;;-1.90;99.90;;;;;;1787993;78;21188;-74
2022/01/15 01:52:31;;;;;;;24.23;13.20;;;-1.90;99.90;;;;;;1786536;78;21180;-73
2022/01/15 01:54:59;;;;;;;33.25;13.32;;;-1.80;99.90;;;;;;1787410;79;21506;-72
2022/01/15 01:57:26;;;;;;;20.30;13.00;;;-1.80;99.90;;;;;;1785863;80;21171;-73
2022/01/15 01:59:53;;;;;;;22.13;12.95;;;-1.80;99.90;;;;;;1788764;80;21478;-72
2022/01/15 02:02:21;;;;;;;20.60;12.23;;;-1.90;99.90;;;;;;1796342;80;21098;-73
2022/01/15 02:04:48;;;;;;;21.52;13.05;;;-1.80;99.90;;;;;;1789833;80;21438;-73
2022/01/15 02:07:15;;;;;;;22.77;13.18;;;-1.80;99.90;;;;;;1787917;78;21110;-73
2022/01/15 02:09:42;;;;;;;19.57;12.98;;;-1.90;99.90;;;;;;1790916;80;21145;-73
2022/01/15 02:12:10;;;;;;;20.35;13.03;;;-1.90;99.90;;;;;;1786205;80;21110;-73
2022/01/15 02:14:37;;;;;;;22.77;12.63;;;-1.80;99.90;;;;;;1785826;78;21099;-73
2022/01/15 02:17:04;;;;;;;22.45;12.15;;;-1.90;99.90;;;;;;1789286;79;21471;-73
2022/01/15 02:19:43;;;;;;;17.35;11.97;;;-1.90;99.90;;;;;;1797959;78;21189;-72
2022/01/15 02:24:49;;;;;;;22.45;11.85;;;-2.10;99.90;;;;;;1785892;80;21539;-73
2022/01/15 02:27:17;;;;;;;19.52;13.03;;;-2.10;99.90;;;;;;1788633;79;21603;-74
2022/01/15 02:29:44;;;;;;;22.55;12.30;;;-2.00;99.90;;;;;;1799936;80;21015;-72
2022/01/15 02:32:11;;;;;;;18.42;11.57;;;-2.00;99.90;;;;;;1786298;80;21514;-73
2022/01/15 02:34:38;;;;;;;21.80;12.07;;;-2.10;99.90;;;;;;1792430;79;21082;-73
2022/01/15 02:37:06;;;;;;;25.52;12.93;;;-2.00;99.90;;;;;;1793887;80;21184;-74
2022/01/15 02:39:36;;;;;;;20.90;13.53;;;-2.00;99.90;;;;;;1794330;78;21251;-74
2022/01/15 02:42:03;;;;;;;;;;;-2.10;99.90;;;;;;1794600;78;21103;-74
2022/01/15 02:44:37;;;;;;;18.92;11.97;;;-1.90;99.90;;;;;;1785851;80;20334;-74
2022/01/15 02:49:31;;;;;;;25.25;12.78;;;-1.90;99.90;;;;;;1791539;80;21099;-74
2022/01/15 02:51:58;;;;;;;16.15;11.73;;;-1.90;99.90;;;;;;1786083;80;21148;-73
2022/01/15 02:54:25;;;;;;;19.17;12.68;;;-1.90;99.90;;;;;;1788855;80;21171;-73
2022/01/15 02:56:54;;;;;;;25.88;12.47;;;-1.90;99.90;;;;;;1795290;80;21153;-74
2022/01/15 02:59:25;;;;;;;22.07;11.97;;;-2.00;99.90;;;;;;1792442;80;21114;-74
2022/01/15 03:01:52;;;;;;;15.68;11.28;;;-2.00;99.90;;;;;;1786078;80;21050;-73
2022/01/15 03:04:19;;;;;;;21.07;11.95;;;-2.00;99.90;;;;;;1785890;80;21408;-72
2022/01/15 03:06:47;;;;;;;17.55;11.48;;;-2.20;99.90;;;;;;1785815;80;21058;-72
2022/01/15 03:09:14;;;;;;;19.98;11.90;;;-2.10;99.90;;;;;;1785795;80;21099;-73
2022/01/15 03:11:42;;;;;;;20.55;12.23;;;-2.00;99.90;;;;;;1785837;80;21466;-73
2022/01/15 03:14:09;;;;;;;22.75;12.78;;;-2.00;99.90;;;;;;1787461;80;21527;-73
2022/01/15 03:16:37;;;;;;;20.20;12.37;;;-2.00;99.90;;;;;;1787381;80;21126;-73
2022/01/15 03:19:04;;;;;;;23.22;13.32;;;-2.00;99.90;;;;;;1787854;80;21184;-74
2022/01/15 03:21:31;;;;;;;21.35;12.75;;;-2.00;99.90;;;;;;1796941;78;21191;-74
2022/01/15 03:23:59;;;;;;;21.07;12.53;;;-2.00;99.90;;;;;;1790935;79;21129;-73
2022/01/15 03:26:26;;;;;;;25.57;13.58;;;-2.00;99.90;;;;;;1788491;78;21192;-73
2022/01/15 03:28:53;;;;;;;22.62;12.58;;;-2.10;99.90;;;;;;1789583;80;21067;-74
2022/01/15 03:31:21;;;;;;;20.45;12.30;;;-2.20;99.90;;;;;;1791335;80;21525;-73
2022/01/15 03:33:48;;;;;;;18.85;12.55;;;-2.20;99.90;;;;;;1791459;80;21251;-73
2022/01/15 03:36:15;;;;;;;17.95;11.90;;;-2.20;99.90;;;;;;1789882;78;21192;-74
2022/01/15 03:38:43;;;;;;;18.82;12.10;;;-2.20;99.90;;;;;;1785871;80;21153;-73
2022/01/15 03:41:10;;;;;;;20.82;11.85;;;-2.10;99.90;;;;;;1794333;80;21074;-74
2022/01/15 03:43:37;;;;;;;20.15;11.63;;;-2.20;99.90;;;;;;1791258;78;21122;-73
2022/01/15 03:46:04;;;;;;;20.62;12.20;;;-2.20;99.90;;;;;;1796193;80;21141;-72
2022/01/15 03:48:32;;;;;;;18.10;12.13;;;-2.20;99.90;;;;;;1786641;80;21086;-74
2022/01/15 03:50:59;;;;;;;24.55;12.65;;;-2.10;99.90;;;;;;1796537;78;21106;-74
2022/01/15 03:53:27;;;;;;;35.10;12.65;;;-2.20;99.90;;;;;;1788121;80;21270;-73
2022/01/15 03:55:54;;;;;;;19.85;12.07;;;-2.20;99.90;;;;;;1790104;78;21151;-74
2022/01/15 03:58:21;;;;;;;20.35;12.43;;;-2.30;99.90;;;;;;1798354;79;21090;-74
2022/01/15 04:00:49;;;;;;;19.55;12.63;;;-2.30;99.90;;;;;;1796056;80;21474;-73
2022/01/15 04:03:16;;;;;;;21.65;13.00;;;-2.40;99.90;;;;;;1788965;80;21067;-73
2022/01/15 04:05:44;;;;;;;16.97;11.75;;;-2.30;99.90;;;;;;1799444;80;21116;-74
2022/01/15 04:08:11;;;;;;;26.97;13.65;;;-2.40;99.90;;;;;;1796084;78;21106;-74
2022/01/15 04:10:38;;;;;;;19.82;12.55;;;-2.40;99.90;;;;;;1789229;78;21172;-74
2022/01/15 04:13:06;;;;;;;19.95;12.73;;;-2.40;99.90;;;;;;1793245;79;21184;-75
2022/01/15 04:15:33;;;;;;;20.80;11.80;;;-2.30;99.90;;;;;;1795368;80;21152;-73
2022/01/15 04:18:01;;;;;;;19.30;12.60;;;-2.30;99.90;;;;;;1791689;80;21514;-72
2022/01/15 04:20:28;;;;;;;20.35;12.45;;;-2.30;99.90;;;;;;1793697;79;21176;-74
2022/01/15 04:22:55;;;;;;;16.50;11.63;;;-2.30;99.90;;;;;;1787871;78;21176;-72
2022/01/15 04:25:23;;;;;;;25.88;11.83;;;-2.40;99.90;;;;;;1788923;78;21110;-73
2022/01/15 04:27:50;;;;;;;22.02;12.55;;;-2.40;99.90;;;;;;1785900;80;21052;-72
2022/01/15 04:30:18;;;;;;;21.02;12.73;;;-2.40;99.90;;;;;;1789179;80;21201;-73
2022/01/15 04:32:47;;;;;;;28.32;12.25;;;-2.40;99.90;;;;;;1786010;80;21137;-75
2022/01/15 04:35:14;;;;;;;17.85;11.57;;;-2.40;99.90;;;;;;1788836;80;21183;-72
2022/01/15 04:37:45;;;;;;;20.25;12.60;;;-2.40;99.90;;;;;;1789141;80;21188;-72
2022/01/15 04:40:11;;;;;;;21.42;12.37;;;-2.50;99.90;;;;;;1785421;78;21510;-73
2022/01/15 04:42:38;;;;;;;19.25;12.53;;;-2.60;99.90;;;;;;1790392;78;21098;-72
2022/01/15 04:45:07;;;;;;;28.25;12.93;;;-2.50;99.90;;;;;;1786851;80;21163;-74
2022/01/15 04:47:36;;;;;;;20.88;12.82;;;-2.40;99.90;;;;;;1754186;80;21122;-73
2022/01/15 04:50:08;;;;;;;21.70;13.30;;;-2.40;99.90;;;;;;1787570;78;21592;-71
2022/01/15 04:52:38;;;;;;;18.12;13.45;;;-2.40;99.90;;;;;;1796257;78;21236;-72
2022/01/15 04:55:05;;;;;;;24.47;13.40;;;-2.40;99.90;;;;;;1794308;80;21101;-73
2022/01/15 04:57:33;;;;;;;24.35;14.10;;;-2.40;99.90;;;;;;1795244;78;21159;-73
2022/01/15 05:00:00;;;;;;;26.70;13.75;;;-2.50;99.90;;;;;;1792836;80;21071;-73
2022/01/15 05:02:27;;;;;;;23.47;13.30;;;-2.50;99.90;;;;;;1785868;80;21255;-73
2022/01/15 05:04:55;;;;;;;24.67;12.68;;;-2.50;99.90;;;;;;1785830;80;21093;-73
2022/01/15 05:07:22;;;;;;;18.87;12.60;;;-2.60;99.90;;;;;;1793562;80;21187;-73
2022/01/15 05:09:50;;;;;;;20.62;12.43;;;-2.70;99.90;;;;;;1794544;80;21177;-72
2022/01/15 05:12:41;;;;;;;17.17;12.13;;;-2.60;99.90;;;;;;1787742;78;21111;-73
2022/01/15 05:14:59;;;;;;;20.27;12.20;;;-2.60;99.90;;;;;;1783891;80;21176;-73
2022/01/15 05:17:26;;;;;;;22.22;12.50;;;-2.60;99.90;;;;;;1785844;80;21536;-72
2022/01/15 05:19:53;;;;;;;32.33;14.30;;;-2.50;99.90;;;;;;1790564;80;21227;-73
2022/01/15 05:22:21;;;;;;;26.30;13.98;;;-2.50;99.90;;;;;;1787123;80;21502;-72
2022/01/15 05:24:48;;;;;;;19.35;12.35;;;-2.40;99.90;;;;;;1785811;78;21110;-73
2022/01/15 05:27:15;;;;;;;22.58;13.03;;;-2.50;99.90;;;;;;1785915;80;21466;-74
2022/01/15 05:29:44;;;;;;;22.00;13.25;;;-2.50;99.90;;;;;;1785944;80;21431;-73
2022/01/15 05:32:11;;;;;;;31.93;15.30;;;-2.50;99.90;;;;;;1791390;79;21584;-73
2022/01/15 05:34:38;;;;;;;24.72;13.55;;;-2.50;99.90;;;;;;1790175;80;21102;-72
2022/01/15 05:37:06;;;;;;;20.30;13.45;;;-2.60;99.90;;;;;;1787250;80;21110;-72
2022/01/15 05:39:33;;;;;;;22.20;13.30;;;-2.60;99.90;;;;;;1790217;78;21191;-73
2022/01/15 05:42:00;;;;;;;20.70;13.10;;;-2.60;99.90;;;;;;1798655;80;21091;-73
2022/01/15 05:44:28;;;;;;;20.50;12.55;;;-2.60;99.90;;;;;;1793283;79;21117;-73
2022/01/15 05:46:55;;;;;;;22.75;13.38;;;-2.60;99.90;;;;;;1785824;80;21165;-74
2022/01/15 05:49:22;;;;;;;21.07;13.18;;;-2.70;99.90;;;;;;1790816;80;21521;-73
2022/01/15 05:51:50;;;;;;;19.62;12.80;;;-2.60;99.90;;;;;;1788514;78;21171;-74
2022/01/15 05:54:17;;;;;;;17.77;12.13;;;-2.60;99.90;;;;;;1787360;80;21516;-72
2022/01/15 05:56:44;;;;;;;21.33;12.78;;;-2.70;99.90;;;;;;1797488;78;21195;-73
2022/01/15 05:59:12;;;;;;;21.65;12.58;;;-2.60;99.90;;;;;;1790824;80;21102;-74
2022/01/15 06:01:39;;;;;;;31.42;12.00;;;-2.70;99.90;;;;;;1804687;79;21168;-73
2022/01/15 06:04:06;;;;;;;25.35;12.33;;;-2.70;99.90;;;;;;1789023;80;21168;-73
2022/01/15 06:06:34;;;;;;;21.90;12.00;;;-2.70;99.90;;;;;;1787494;78;21094;-74
2022/01/15 06:09:02;;;;;;;17.20;11.83;;;-2.70;99.90;;;;;;1796957;78;21529;-73
2022/01/15 06:11:30;;;;;;;21.77;12.07;;;-2.70;99.90;;;;;;1791030;79;21122;-73
2022/01/15 06:13:58;;;;;;;20.05;12.58;;;-2.70;99.90;;;;;;1788667;80;21505;-72
2022/01/15 06:16:25;;;;;;;21.93;13.62;;;-2.60;99.90;;;;;;1794104;80;21113;-72
2022/01/15 06:18:52;;;;;;;17.35;12.30;;;-2.70;99.90;;;;;;1799752;80;21070;-72
2022/01/15 06:21:20;;;;;;;18.40;12.53;;;-2.70;99.90;;;;;;1795608;78;21113;-72
2022/01/15 06:23:47;;;;;;;62.00;23.25;;;-2.70;99.90;;;;;;1789070;80;21141;-73
2022/01/15 06:26:14;;;;;;;38.08;16.02;;;-2.80;99.90;;;;;;1791899;80;21180;-72
2022/01/15 06:28:41;;;;;;;41.33;17.57;;;-2.60;99.90;;;;;;1790491;78;21103;-74
2022/01/15 06:31:09;;;;;;;31.75;16.60;;;-2.70;99.90;;;;;;1790893;80;21102;-73
2022/01/15 06:33:36;;;;;;;23.80;14.30;;;-2.70;99.90;;;;;;1795506;80;21136;-74
2022/01/15 06:36:04;;;;;;;27.40;13.15;;;-2.70;99.90;;;;;;1789472;80;21192;-73
2022/01/15 06:38:31;;;;;;;30.17;14.78;;;-2.70;99.90;;;;;;1793716;80;21087;-72
2022/01/15 06:40:58;;;;;;;21.52;12.93;;;-2.70;99.90;;;;;;1788670;80;21822;-73
2022/01/15 06:43:26;;;;;;;25.80;13.62;;;-2.80;99.90;;;;;;1798105;78;21075;-74
2022/01/15 06:45:54;;;;;;;25.20;14.78;;;-2.80;99.90;;;;;;1792351;80;21216;-72
2022/01/15 06:48:21;;;;;;;20.88;13.48;;;-2.80;99.90;;;;;;1788721;80;21141;-72
2022/01/15 06:50:48;;;;;;;25.17;13.18;;;-2.80;99.90;;;;;;1795552;80;21078;-73
2022/01/15 06:53:16;;;;;;;20.00;13.05;;;-2.70;99.90;;;;;;1786691;80;21102;-73
2022/01/15 06:55:45;;;;;;;23.92;13.15;;;-2.80;99.90;;;;;;1786651;80;21067;-74
2022/01/15 06:58:12;;;;;;;23.55;13.13;;;-2.80;99.90;;;;;;1794410;80;21566;-72
2022/01/15 07:00:39;;;;;;;21.90;12.98;;;-2.80;99.90;;;;;;1792082;79;21110;-72
2022/01/15 07:03:07;;;;;;;21.50;13.30;;;-2.90;99.90;;;;;;1791184;78;21536;-73
2022/01/15 07:05:34;;;;;;;25.12;13.88;;;-2.80;99.90;;;;;;1761805;80;21157;-73
2022/01/15 07:08:02;;;;;;;23.32;12.98;;;-2.80;99.90;;;;;;1794424;78;21542;-74
2022/01/15 07:10:29;;;;;;;22.48;13.58;;;-2.80;99.90;;;;;;1791116;78;21553;-73
2022/01/15 07:12:57;;;;;;;25.17;14.03;;;-2.80;99.90;;;;;;1798985;80;21118;-73
2022/01/15 07:15:24;;;;;;;25.82;14.43;;;-2.80;99.90;;;;;;1790594;78;21165;-74
2022/01/15 07:17:52;;;;;;;20.48;13.20;;;-2.90;99.90;;;;;;1787397;80;21110;-75
2022/01/15 07:20:20;;;;;;;26.52;14.25;;;-3.00;99.90;;;;;;1786582;80;21114;-73
2022/01/15 07:22:47;;;;;;;29.87;13.68;;;-2.80;99.90;;;;;;1792847;80;21156;-74
2022/01/15 07:25:14;;;;;;;23.30;14.00;;;-2.80;99.90;;;;;;1785923;80;21110;-75
2022/01/15 07:27:42;;;;;;;22.10;13.98;;;-2.80;99.90;;;;;;1787584;80;21181;-75
2022/01/15 07:30:10;;;;;;;24.82;15.40;;;-2.90;99.90;;;;;;1794988;80;21189;-74
2022/01/15 07:32:37;;;;;;;26.48;14.40;;;-2.80;99.90;;;;;;1789164;80;21113;-73
2022/01/15 07:35:05;;;;;;;25.17;14.20;;;-2.60;99.90;;;;;;1785958;80;21347;-73
2022/01/15 07:37:32;;;;;;;24.23;14.78;;;-2.70;99.90;;;;;;1786033;80;21082;-73
2022/01/15 07:40:00;;;;;;;19.87;14.43;;;-2.70;99.90;;;;;;1793638;79;21094;-72
2022/01/15 07:42:34;;;;;;;19.90;13.05;;;-2.80;99.90;;;;;;1785809;80;21199;-73
2022/01/15 07:44:57;;;;;;;;;;;-2.70;99.90;;;;;;1787994;80;21127;-74
2022/01/15 07:47:24;;;;;;;27.80;13.03;;;-2.80;99.90;;;;;;1785832;79;20385;-73
2022/01/15 07:49:52;;;;;;;25.62;15.18;;;-2.80;99.90;;;;;;1790039;78;21106;-74
2022/01/15 07:52:19;;;;;;;32.93;14.30;;;-2.70;99.90;;;;;;1787566;80;21513;-73
2022/01/15 07:54:47;;;;;;;22.52;13.80;;;-2.70;99.90;;;;;;1787349;78;21522;-74
2022/01/15 07:57:14;;;;;;;20.32;14.63;;;-2.70;99.90;;;;;;1796167;79;21207;-74
2022/01/15 07:59:41;;;;;;;25.23;14.13;;;-2.60;99.90;;;;;;1799789;80;21580;-73
2022/01/15 08:02:09;;;;;;;22.82;13.30;;;-2.60;99.90;;;;;;1786895;80;21156;-72
2022/01/15 08:04:36;;;;;;;22.77;14.10;;;-2.50;99.90;;;;;;1790034;80;21396;-71
2022/01/15 08:07:03;;;;;;;21.57;13.55;;;-2.50;99.90;;;;;;1792017;78;21262;-72
2022/01/15 08:09:31;;;;;;;19.55;12.85;;;-2.50;99.90;;;;;;1789398;80;21113;-73
2022/01/15 08:11:58;;;;;;;27.60;15.05;;;-2.50;99.90;;;;;;1786057;78;21098;-72
2022/01/15 08:14:25;;;;;;;32.63;15.40;;;-2.50;99.90;;;;;;1787100;78;21074;-73
2022/01/15 08:16:52;;;;;;;25.12;14.85;;;-2.50;99.90;;;;;;1788210;80;21180;-73
2022/01/15 08:19:20;;;;;;;36.60;16.30;;;-2.50;99.90;;;;;;1787599;80;21173;-73
2022/01/15 08:21:47;;;;;;;22.52;14.40;;;-2.50;99.90;;;;;;1787635;80;21106;-72
2022/01/15 08:24:14;;;;;;;31.85;15.35;;;-2.50;99.90;;;;;;1787803;78;21109;-72
2022/01/15 08:26:42;;;;;;;22.60;14.00;;;-2.40;99.90;;;;;;1789692;79;21192;-77
2022/01/15 08:29:09;;;;;;;28.17;14.15;;;-2.40;99.90;;;;;;1791644;79;21172;-73
2022/01/15 08:31:36;;;;;;;29.20;14.03;;;-2.40;99.90;;;;;;1787004;80;21106;-74
2022/01/15 08:34:04;;;;;;;26.93;14.10;;;-2.30;99.90;;;;;;1789895;78;21487;-73
2022/01/15 08:36:32;;;;;;;24.47;13.30;;;-2.20;99.90;;;;;;1785830;80;21132;-73
2022/01/15 08:38:59;;;;;;;24.50;14.60;;;-2.20;99.90;;;;;;1785778;80;21176;-72
2022/01/15 08:41:28;;;;;;;26.15;13.80;;;-2.10;99.90;;;;;;1792973;80;21063;-73
2022/01/15 08:43:56;;;;;;;24.70;12.18;;;-2.00;99.90;;;;;;1753476;80;21193;-74
2022/01/15 08:46:23;;;;;;;25.75;13.03;;;-1.80;99.90;;;;;;1794652;78;21184;-73
2022/01/15 08:48:51;;;;;;;22.35;13.65;;;-1.80;99.90;;;;;;1792124;80;21082;-73
2022/01/15 08:51:18;;;;;;;24.00;12.13;;;-1.70;99.90;;;;;;1791832;80;21086;-73
2022/01/15 08:53:46;;;;;;;24.55;13.98;;;-1.70;99.90;;;;;;1786430;78;21110;-73
2022/01/15 08:56:14;;;;;;;23.18;12.90;;;-1.70;99.90;;;;;;1791445;80;21106;-74
2022/01/15 08:58:44;;;;;;;21.87;13.32;;;-1.60;99.90;;;;;;1792885;79;21095;-75
2022/01/15 09:01:13;;;;;;;24.10;14.80;;;-1.60;99.90;;;;;;1796337;78;21169;-74
2022/01/15 09:03:41;;;;;;;26.42;13.75;;;-1.50;99.90;;;;;;1795405;78;21118;-74
2022/01/15 09:06:09;;;;;;;30.32;14.58;;;-1.40;99.90;;;;;;1787964;78;21122;-75
2022/01/15 09:08:37;;;;;;;26.10;13.18;;;-1.30;99.90;;;;;;1792679;78;21576;-77
2022/01/15 09:11:04;;;;;;;18.98;13.93;;;-1.10;99.90;;;;;;1798370;80;21188;-73
2022/01/15 09:13:31;;;;;;;20.15;13.10;;;-1.00;99.90;;;;;;1788433;80;21494;-74
2022/01/15 09:15:58;;;;;;;28.95;16.40;;;-0.90;99.90;;;;;;1785664;80;21066;-72
2022/01/15 09:18:26;;;;;;;25.92;13.45;;;-0.70;99.90;;;;;;1795293;80;21482;-73
2022/01/15 09:20:55;;;;;;;22.55;13.08;;;-0.50;99.90;;;;;;1796715;78;21191;-72
2022/01/15 09:23:22;;;;;;;27.05;15.05;;;-0.50;99.90;;;;;;1791730;80;21110;-73
2022/01/15 09:25:50;;;;;;;28.30;17.25;;;-0.30;99.90;;;;;;1789778;79;21180;-79
2022/01/15 09:31:03;;;;;;;17.92;11.53;;;0.20;99.90;;;;;;1790316;78;21181;-73
2022/01/15 09:33:30;;;;;;;37.58;17.77;;;0.50;99.90;;;;;;1787681;78;21179;-73
2022/01/15 09:35:57;;;;;;;18.25;12.25;;;0.60;99.90;;;;;;1785753;80;21040;-74
2022/01/15 09:38:25;;;;;;;17.45;11.10;;;0.80;99.90;;;;;;1787705;80;21211;-74
2022/01/15 09:40:52;;;;;;;21.52;12.45;;;1.30;99.90;;;;;;1787217;78;21514;-75
2022/01/15 09:43:19;;;;;;;20.32;12.60;;;1.50;99.90;;;;;;1785754;80;21109;-74
2022/01/15 09:45:47;;;;;;;15.03;10.75;;;1.90;99.90;;;;;;1787540;80;21502;-75
2022/01/15 09:48:15;;;;;;;21.00;11.05;;;1.90;99.90;;;;;;1795173;79;21172;-76
2022/01/15 09:50:43;;;;;;;19.98;11.45;;;1.80;99.90;;;;;;1796104;78;21498;-74
2022/01/15 09:53:13;;;;;;;18.48;10.70;;;2.00;99.90;;;;;;1785722;80;21093;-75
2022/01/15 09:55:40;;;;;;;20.32;10.38;;;2.40;99.90;;;;;;1788038;78;21184;-76
2022/01/15 09:58:09;;;;;;;22.25;10.32;;;2.60;99.90;;;;;;1792134;80;21078;-74
2022/01/15 10:00:37;;;;;;;15.83;9.37;;;2.80;99.90;;;;;;1786110;80;21451;-73
2022/01/15 10:03:04;;;;;;;15.95;10.03;;;2.50;99.90;;;;;;1790515;80;21110;-75
2022/01/15 10:05:31;;;;;;;17.42;9.58;;;2.80;99.90;;;;;;1799107;79;21470;-74
2022/01/15 10:08:04;;;;;;;16.55;9.63;;;2.70;99.90;;;;;;1785963;80;21533;-75
2022/01/15 10:10:33;;;;;;;14.65;9.60;;;2.70;99.90;;;;;;1785973;80;21074;-74
2022/01/15 10:13:13;;;;;;;16.00;9.90;;;2.80;99.90;;;;;;1787652;78;21145;-74
2022/01/15 10:15:42;;;;;;;16.85;9.73;;;2.70;99.90;;;;;;1788855;78;21183;-75
2022/01/15 10:18:27;;;;;;;19.67;9.68;;;3.10;99.90;;;;;;1790073;79;21185;-75
2022/01/15 10:20:55;;;;;;;17.42;10.00;;;3.50;99.90;;;;;;1785802;80;21498;-76
2022/01/15 10:23:24;;;;;;;13.62;9.18;;;3.50;99.90;;;;;;1761655;80;21079;-75
2022/01/15 10:26:13;;;;;;;16.05;10.28;;;3.70;99.90;;;;;;1786080;80;21172;-76
2022/01/15 10:29:00;;;;;;;16.70;10.85;;;4.10;99.90;;;;;;1792241;78;21113;-75
2022/01/15 10:31:30;;;;;;;19.42;9.68;;;4.30;99.90;;;;;;1795444;80;21454;-75
2022/01/15 10:33:58;;;;;;;16.67;9.95;;;4.80;99.90;;;;;;1760926;78;21067;-75
2022/01/15 10:36:29;;;;;;;13.95;9.73;;;5.30;99.90;;;;;;1785947;80;21149;-75
2022/01/15 10:39:14;;;;;;;16.15;10.25;;;5.00;99.90;;;;;;1789891;79;21161;-74
2022/01/15 10:41:42;;;;;;;12.28;9.23;;;4.50;99.90;;;;;;1784805;80;21082;-74
2022/01/15 10:44:27;;;;;;;14.03;10.28;;;4.60;99.90;;;;;;1754537;80;21101;-75
2022/01/15 10:47:05;;;;;;;15.25;10.32;;;4.70;99.90;;;;;;1755252;80;21113;-74
2022/01/15 10:49:32;;;;;;;15.30;10.13;;;4.90;99.90;;;;;;1793589;80;21086;-73
2022/01/15 10:52:17;;;;;;;15.48;9.85;;;5.80;99.90;;;;;;1792128;80;21156;-71
2022/01/15 10:55:01;;;;;;;20.75;11.15;;;6.50;99.90;;;;;;1791106;79;21113;-75
2022/01/15 10:57:31;;;;;;;15.05;10.53;;;6.40;99.90;;;;;;1789446;77;21162;-74
2022/01/15 11:00:03;;;;;;;17.98;10.78;;;7.00;99.90;;;;;;1792515;79;21121;-74
2022/01/15 11:02:31;;;;;;;18.85;11.08;;;7.10;99.90;;;;;;1799904;78;21109;-84
2022/01/15 11:04:59;;;;;;;13.05;9.80;;;7.00;99.90;;;;;;1802291;80;21152;-74
2022/01/15 11:07:26;;;;;;;21.65;10.35;;;7.00;99.90;;;;;;1795599;78;21152;-72
2022/01/15 11:09:56;;;;;;;16.35;10.35;;;6.90;99.90;;;;;;1798702;80;21078;-73
2022/01/15 11:12:30;;;;;;;14.15;10.25;;;6.00;99.90;;;;;;1798223;79;21112;-74
2022/01/15 11:14:55;;;;;;;21.12;11.38;;;6.00;99.90;;;;;;1795215;80;21083;-74
2022/01/15 11:17:22;;;;;;;15.00;10.88;;;6.40;99.90;;;;;;1790269;79;21106;-73
2022/01/15 11:19:51;;;;;;;16.95;10.82;;;7.10;99.90;;;;;;1785786;80;21560;-74
2022/01/15 11:22:25;;;;;;;21.42;10.85;;;7.50;99.90;;;;;;1794888;78;21196;-73
2022/01/15 11:24:52;;;;;;;13.75;10.63;;;7.40;99.90;;;;;;1788639;80;21126;-72
2022/01/15 11:27:20;;;;;;;20.75;11.12;;;7.50;99.90;;;;;;1785821;80;21140;-74
2022/01/15 11:29:47;;;;;;;19.80;12.18;;;7.20;99.90;;;;;;1787433;80;21204;-77
2022/01/15 11:32:15;;;;;;;19.57;11.78;;;6.50;99.90;;;;;;1790490;80;21261;-74
2022/01/15 11:34:48;;;;;;;16.37;11.85;;;6.60;99.90;;;;;;1791559;78;21187;-73
2022/01/15 11:37:17;;;;;;;21.37;11.78;;;7.80;99.90;;;;;;1798265;80;21105;-73
2022/01/15 11:39:46;;;;;;;23.27;12.20;;;7.90;99.90;;;;;;1785736;80;21079;-75
2022/01/15 11:42:35;;;;;;;16.65;12.25;;;7.90;99.90;;;;;;1787201;80;21118;-73
2022/01/15 11:44:58;;;;;;;19.75;12.23;;;8.40;99.90;;;;;;1786673;78;21083;-73
2022/01/15 11:47:26;;;;;;;18.52;12.30;;;8.70;99.90;;;;;;1785739;79;21185;-72
2022/01/15 11:49:58;;;;;;;24.67;11.65;;;8.50;99.90;;;;;;1785579;79;21185;-73
2022/01/15 11:52:27;;;;;;;18.20;11.25;;;8.40;99.90;;;;;;1785213;79;21185;-74
2022/01/15 11:55:05;;;;;;;18.00;11.43;;;8.10;99.90;;;;;;1792934;80;21169;-73
2022/01/15 11:57:34;;;;;;;26.17;15.65;;;8.20;99.90;;;;;;1785855;80;21172;-74
2022/01/15 12:00:03;;;;;;;20.00;12.58;;;8.50;99.90;;;;;;1785736;80;21180;-74
2022/01/15 12:02:40;;;;;;;19.95;13.10;;;8.90;99.90;;;;;;1790597;78;21125;-73
2022/01/15 12:05:27;;;;;;;22.48;13.18;;;8.50;99.90;;;;;;1789090;78;21517;-75
2022/01/15 12:08:08;;;;;;;25.97;14.23;;;8.50;99.90;;;;;;1788021;79;21139;-73
2022/01/15 12:10:49;;;;;;;21.75;13.30;;;8.80;99.90;;;;;;1787390;80;21547;-73
2022/01/15 12:13:22;;;;;;;22.00;13.22;;;8.50;99.90;;;;;;1785547;78;21177;-74
2022/01/15 12:15:52;;;;;;;21.62;14.55;;;8.40;99.90;;;;;;1798786;79;21113;-73
2022/01/15 12:18:21;;;;;;;21.95;13.72;;;7.70;99.90;;;;;;1774819;80;21511;-73
2022/01/15 12:20:54;;;;;;;20.00;13.13;;;7.40;99.90;;;;;;1785961;80;21174;-72
2022/01/15 12:23:24;;;;;;;25.17;13.93;;;8.00;99.90;;;;;;1794114;80;21110;-73
2022/01/15 12:25:55;;;;;;;28.87;13.40;;;7.70;99.90;;;;;;1790579;80;21122;-72
2022/01/15 12:28:24;;;;;;;21.97;14.13;;;7.70;99.90;;;;;;1785884;78;21157;-72
2022/01/15 12:30:54;;;;;;;21.80;14.10;;;7.60;99.90;;;;;;1786132;78;21164;-72
2022/01/15 12:33:22;;;;;;;27.80;14.28;;;7.90;99.90;;;;;;1787130;78;21173;-73
2022/01/15 12:35:53;;;;;;;22.58;13.95;;;7.80;99.90;;;;;;1795987;78;21564;-73
2022/01/15 12:38:29;;;;;;;23.77;14.47;;;7.90;99.90;;;;;;1786177;80;21141;-73
2022/01/15 12:41:02;;;;;;;21.37;14.00;;;7.90;99.90;;;;;;1791398;78;21105;-72
2022/01/15 12:43:38;;;;;;;27.05;15.10;;;8.10;99.90;;;;;;1793035;78;21086;-72
2022/01/15 12:46:15;;;;;;;28.67;14.63;;;8.30;99.90;;;;;;1785975;80;21129;-72
2022/01/15 12:48:44;;;;;;;23.90;14.00;;;8.60;99.90;;;;;;1790455;78;21448;-73
2022/01/15 12:51:14;;;;;;;28.77;14.33;;;8.40;99.90;;;;;;1787377;80;21118;-73
2022/01/15 12:53:42;;;;;;;;;;;8.40;99.90;;;;;;1799304;78;21557;-73
2022/01/15 12:56:12;;;;;;;21.93;14.15;;;8.10;99.90;;;;;;1791452;80;20130;-73